Time;durP1;ratioP1;P1;durP2;ratioP2;P2;SDS_P1;SDS_P2;PMS_P1;PMS_P2;Temp;Humidity;BMP_temperature;BMP_pressure;BME280_temperature;BME280_humidity;BME280_pressure;Samples;Min_cycle;Max_cycle;Signal;HPM_P1;HPM_P2
2023/02/14 00:02:06;;;;;;;138.20;26.10;;;4.00;99.90;;;;;;4651321;30;20209;-75
2023/02/14 00:04:33;;;;;;;78.78;25.42;;;3.90;99.90;;;;;;4654097;30;20204;-79
2023/02/14 00:07:00;;;;;;;81.75;26.88;;;4.00;99.90;;;;;;4652250;30;20252;-76
2023/02/14 00:09:26;;;;;;;92.43;27.00;;;3.90;99.90;;;;;;4653166;30;20225;-77
2023/02/14 00:11:52;;;;;;;103.40;26.20;;;3.80;99.90;;;;;;4626462;30;21447;-77
2023/02/14 00:17:02;;;;;;;125.70;26.23;;;3.90;99.90;;;;;;4653483;30;20936;-78
2023/02/14 00:19:28;;;;;;;82.07;27.35;;;3.80;99.90;;;;;;4647299;30;20215;-75
2023/02/14 00:21:53;;;;;;;54.35;25.50;;;3.80;99.90;;;;;;4627855;30;20638;-77
2023/02/14 00:24:23;;;;;;;110.55;26.13;;;3.80;99.90;;;;;;4653143;30;20233;-79
2023/02/14 00:26:49;;;;;;;129.13;26.08;;;3.80;99.90;;;;;;4653778;30;20201;-77
2023/02/14 00:29:17;;;;;;;93.50;26.25;;;3.80;99.90;;;;;;4638753;30;20264;-76
2023/02/14 00:31:43;;;;;;;100.35;25.95;;;3.80;99.90;;;;;;4652870;30;20627;-77
2023/02/14 00:34:13;;;;;;;73.55;26.40;;;3.80;99.90;;;;;;4653741;30;20651;-75
2023/02/14 00:36:39;;;;;;;100.22;24.58;;;3.80;99.90;;;;;;4653064;30;20228;-74
2023/02/14 00:39:07;;;;;;;117.63;22.52;;;3.70;99.90;;;;;;4639494;30;20324;-78
2023/02/14 00:41:36;;;;;;;63.83;21.13;;;3.70;99.90;;;;;;4653456;30;20193;-77
2023/02/14 00:44:02;;;;;;;102.85;23.58;;;3.70;99.90;;;;;;4652719;30;20197;-78
2023/02/14 00:46:28;;;;;;;104.00;25.52;;;3.60;99.90;;;;;;4655030;30;20698;-76
2023/02/14 00:48:54;;;;;;;59.58;24.35;;;3.50;99.90;;;;;;4638509;30;20295;-77
2023/02/14 00:51:20;;;;;;;99.38;24.98;;;3.50;99.90;;;;;;4628482;30;20217;-76
2023/02/14 00:53:47;;;;;;;102.75;26.70;;;3.50;99.90;;;;;;4651200;30;20211;-81
2023/02/14 00:56:14;;;;;;;67.03;25.60;;;3.50;99.90;;;;;;4631337;30;22339;-73
2023/02/14 00:58:42;;;;;;;72.85;25.98;;;3.50;99.90;;;;;;4652371;30;20232;-77
2023/02/14 01:01:08;;;;;;;77.35;26.08;;;3.50;99.90;;;;;;4651524;30;20291;-80
2023/02/14 01:03:34;;;;;;;134.60;26.45;;;3.50;99.90;;;;;;4644525;30;20193;-78
2023/02/14 01:06:01;;;;;;;76.22;24.45;;;3.50;99.90;;;;;;4647231;30;20214;-79
2023/02/14 01:08:29;;;;;;;82.57;26.55;;;3.40;99.90;;;;;;4651888;30;20245;-76
2023/02/14 01:10:55;;;;;;;56.47;25.50;;;3.50;99.90;;;;;;4651487;30;20201;-78
2023/02/14 01:13:21;;;;;;;100.57;25.23;;;3.50;99.90;;;;;;4651304;30;20261;-78
2023/02/14 01:15:49;;;;;;;54.40;21.85;;;3.50;99.90;;;;;;4651738;30;20202;-74
2023/02/14 01:18:16;;;;;;;117.40;23.70;;;3.50;99.90;;;;;;4648063;30;20243;-78
2023/02/14 01:20:42;;;;;;;54.13;24.55;;;3.40;99.90;;;;;;4637528;30;20292;-80
2023/02/14 01:23:08;;;;;;;61.33;22.95;;;3.40;99.90;;;;;;4652533;30;20197;-76
2023/02/14 01:25:38;;;;;;;71.82;23.42;;;3.40;99.90;;;;;;4652527;30;20223;-81
2023/02/14 01:28:05;;;;;;;64.10;22.73;;;3.40;99.90;;;;;;4647143;30;20335;-77
2023/02/14 01:30:32;;;;;;;118.13;23.05;;;3.30;99.90;;;;;;4649942;30;20245;-79
2023/02/14 01:32:57;;;;;;;53.53;20.90;;;3.30;99.90;;;;;;4652533;30;20209;-80
2023/02/14 01:35:24;;;;;;;84.00;21.75;;;3.30;99.90;;;;;;4638212;30;20700;-79
2023/02/14 01:37:49;;;;;;;63.75;22.88;;;3.40;99.90;;;;;;4636724;30;20332;-78
2023/02/14 01:40:16;;;;;;;92.78;22.92;;;3.20;99.90;;;;;;4648319;30;20206;-78
2023/02/14 01:42:42;;;;;;;131.63;22.52;;;3.20;99.90;;;;;;4636716;30;20213;-76
2023/02/14 01:45:21;;;;;;;98.53;23.15;;;3.20;99.90;;;;;;4637360;30;20228;-80
2023/02/14 01:47:55;;;;;;;128.60;22.90;;;3.10;99.90;;;;;;4640412;30;20200;-75
2023/02/14 01:50:33;;;;;;;109.18;22.10;;;3.20;99.90;;;;;;4653155;30;21317;-78
2023/02/14 01:53:03;;;;;;;53.70;21.67;;;3.10;99.90;;;;;;4652605;30;20222;-80
2023/02/14 01:55:33;;;;;;;43.13;21.50;;;3.00;99.90;;;;;;4651860;30;20200;-77
2023/02/14 01:58:05;;;;;;;165.55;23.85;;;3.00;99.90;;;;;;4655134;30;20200;-76
2023/02/14 02:03:18;;;;;;;58.58;21.83;;;3.00;99.90;;;;;;4643465;30;20209;-77
2023/02/14 02:05:50;;;;;;;74.30;23.42;;;3.00;99.90;;;;;;4658020;30;20720;-79
2023/02/14 02:08:16;;;;;;;88.75;22.25;;;2.90;99.90;;;;;;4658281;30;20295;-75
2023/02/14 02:10:43;;;;;;;50.72;19.85;;;2.90;99.90;;;;;;4654125;30;20666;-77
2023/02/14 02:13:18;;;;;;;47.30;22.25;;;2.90;99.90;;;;;;4656703;30;20360;-76
2023/02/14 02:15:50;;;;;;;74.60;22.75;;;2.90;99.90;;;;;;4630469;30;20208;-77
2023/02/14 02:18:56;;;;;;;46.95;22.95;;;2.90;99.90;;;;;;4644829;30;20201;-79
2023/02/14 02:22:03;;;;;;;70.20;22.70;;;2.90;99.90;;;;;;4641736;30;20189;-79
2023/02/14 02:24:47;;;;;;;59.17;22.25;;;2.80;99.90;;;;;;4594205;31;20629;-81
2023/02/14 02:27:31;;;;;;;88.55;22.60;;;2.80;99.90;;;;;;4629953;30;20258;-76
2023/02/14 02:30:23;;;;;;;58.67;22.33;;;2.80;99.90;;;;;;4632834;30;20216;-75
2023/02/14 02:33:09;;;;;;;49.33;22.40;;;2.80;99.90;;;;;;4656782;30;20201;-81
2023/02/14 02:35:44;;;;;;;41.97;22.33;;;2.80;99.90;;;;;;4656983;30;20224;-81
2023/02/14 02:38:37;;;;;;;50.00;21.88;;;2.90;99.90;;;;;;4656798;30;20343;-77
2023/02/14 02:41:27;;;;;;;71.18;21.95;;;2.80;99.90;;;;;;4642416;30;22102;-78
2023/02/14 02:44:00;;;;;;;49.83;23.42;;;2.80;99.90;;;;;;4632413;30;20201;-76
2023/02/14 02:46:47;;;;;;;42.22;21.30;;;2.80;99.90;;;;;;4658668;30;20556;-74
2023/02/14 02:53:02;;;;;;;53.40;23.83;;;2.80;99.90;;;;;;4634412;30;20828;-79
2023/02/14 02:58:59;;;;;;;44.65;22.17;;;2.70;99.90;;;;;;4633757;30;20294;-80
2023/02/14 03:01:31;;;;;;;39.65;22.48;;;2.70;99.90;;;;;;4631468;30;20240;-77
2023/02/14 03:06:46;;;;;;;43.65;22.35;;;2.70;99.90;;;;;;4647350;30;20278;-80
2023/02/14 03:09:18;;;;;;;42.83;23.45;;;2.70;99.90;;;;;;4635619;30;20236;-80
2023/02/14 03:12:17;;;;;;;38.90;20.95;;;2.70;99.90;;;;;;4649778;30;20906;-75
2023/02/14 03:15:02;;;;;;;42.10;25.08;;;2.70;99.90;;;;;;4630598;30;20231;-77
2023/02/14 03:17:49;;;;;;;47.00;24.20;;;2.70;99.90;;;;;;4651944;30;20185;-76
2023/02/14 03:20:50;;;;;;;44.75;23.00;;;2.70;99.90;;;;;;4629200;30;20196;-77
2023/02/14 03:23:23;;;;;;;39.40;22.00;;;2.70;99.90;;;;;;4653137;30;20198;-75
2023/02/14 03:26:09;;;;;;;39.80;22.88;;;2.70;99.90;;;;;;4654432;30;20196;-76
2023/02/14 03:28:52;;;;;;;41.58;23.52;;;2.70;99.90;;;;;;4651601;30;20233;-78
2023/02/14 03:31:39;;;;;;;48.28;24.42;;;2.70;99.90;;;;;;4651562;30;20255;-75
2023/02/14 03:34:22;;;;;;;44.05;21.75;;;2.70;99.90;;;;;;4630501;30;20249;-78
2023/02/14 03:36:48;;;;;;;46.55;24.98;;;2.70;99.90;;;;;;4653956;30;20186;-75
2023/02/14 03:39:24;;;;;;;41.95;23.80;;;2.70;99.90;;;;;;4651387;30;20838;-75
2023/02/14 03:42:02;;;;;;;41.40;22.27;;;2.80;99.90;;;;;;4617134;30;20217;-75
2023/02/14 03:44:31;;;;;;;42.35;22.60;;;2.70;99.90;;;;;;4639517;30;20212;-76
2023/02/14 03:47:10;;;;;;;43.97;23.50;;;2.80;99.90;;;;;;4638400;30;20283;-78
2023/02/14 03:49:42;;;;;;;44.88;24.38;;;2.80;99.90;;;;;;4653945;30;20217;-78
2023/02/14 03:52:09;;;;;;;44.58;24.50;;;2.80;99.90;;;;;;4652190;30;20272;-74
2023/02/14 03:54:36;;;;;;;49.03;23.92;;;2.80;99.90;;;;;;4654116;30;20203;-76
2023/02/14 03:57:14;;;;;;;44.22;24.90;;;2.90;99.90;;;;;;4651249;30;20206;-79
2023/02/14 03:59:41;;;;;;;48.85;26.08;;;2.80;99.90;;;;;;4638071;30;20283;-79
2023/02/14 04:02:09;;;;;;;50.70;25.60;;;2.90;99.90;;;;;;4654093;30;20206;-75
2023/02/14 04:04:41;;;;;;;45.42;24.33;;;2.90;99.90;;;;;;4652895;30;20260;-78
2023/02/14 04:07:11;;;;;;;49.03;23.70;;;2.90;99.90;;;;;;4649862;30;20695;-75
2023/02/14 04:09:37;;;;;;;49.15;25.75;;;2.80;99.90;;;;;;4651481;30;20311;-76
2023/02/14 04:12:03;;;;;;;49.33;24.52;;;2.80;99.90;;;;;;4652262;30;20205;-79
2023/02/14 04:14:29;;;;;;;46.88;24.48;;;2.80;99.90;;;;;;4651516;30;20202;-76
2023/02/14 04:19:39;;;;;;;53.25;24.45;;;2.80;99.90;;;;;;4640980;30;20201;-75
2023/02/14 04:22:05;;;;;;;48.58;25.30;;;2.90;99.90;;;;;;4630352;30;20563;-76
2023/02/14 04:24:31;;;;;;;47.90;25.65;;;2.90;99.90;;;;;;4649996;30;20330;-74
2023/02/14 04:27:08;;;;;;;52.85;26.30;;;2.80;99.90;;;;;;4651123;30;20563;-81
2023/02/14 04:29:43;;;;;;;48.90;24.67;;;2.80;99.90;;;;;;4652649;30;20371;-75
2023/02/14 04:32:20;;;;;;;54.28;27.00;;;2.90;99.90;;;;;;4639842;30;20769;-75
2023/02/14 04:34:47;;;;;;;52.63;26.40;;;2.90;99.90;;;;;;4652569;30;20561;-75
2023/02/14 04:37:15;;;;;;;54.03;27.08;;;2.90;99.90;;;;;;4651462;30;21065;-76
2023/02/14 04:39:40;;;;;;;60.55;27.55;;;2.80;99.90;;;;;;4651787;30;20232;-77
2023/02/14 04:42:07;;;;;;;53.38;26.92;;;2.80;99.90;;;;;;4654177;30;20287;-74
2023/02/14 04:44:33;;;;;;;61.40;29.88;;;2.90;99.90;;;;;;4639397;30;20201;-79
2023/02/14 04:46:59;;;;;;;63.17;30.30;;;2.80;99.90;;;;;;4654543;30;20201;-73
2023/02/14 04:49:25;;;;;;;61.60;29.10;;;2.90;99.90;;;;;;4652587;30;20240;-77
2023/02/14 04:51:50;;;;;;;62.63;29.27;;;2.90;99.90;;;;;;4652601;30;20832;-79
2023/02/14 04:54:16;;;;;;;59.97;28.38;;;2.90;99.90;;;;;;4654530;30;20694;-79
2023/02/14 04:56:42;;;;;;;61.03;26.92;;;2.90;99.90;;;;;;4651238;30;20258;-77
2023/02/14 04:59:08;;;;;;;58.63;28.77;;;2.90;99.90;;;;;;4652742;30;20239;-76
2023/02/14 05:01:33;;;;;;;60.85;30.65;;;2.90;99.90;;;;;;4654771;30;20193;-78
2023/02/14 05:03:59;;;;;;;58.42;29.13;;;2.90;99.90;;;;;;4653869;30;20196;-78
2023/02/14 05:06:25;;;;;;;63.28;30.23;;;2.90;99.90;;;;;;4651674;30;20210;-77
2023/02/14 05:08:51;;;;;;;63.47;30.17;;;2.90;99.90;;;;;;4653101;30;20951;-75
2023/02/14 05:11:16;;;;;;;60.55;30.75;;;2.80;99.90;;;;;;4629456;30;20236;-75
2023/02/14 05:13:42;;;;;;;60.72;29.45;;;2.90;99.90;;;;;;4634590;30;20204;-76
2023/02/14 05:16:08;;;;;;;61.10;29.50;;;2.90;99.90;;;;;;4637192;30;20203;-80
2023/02/14 05:18:34;;;;;;;66.32;30.02;;;2.90;99.90;;;;;;4639175;30;20197;-78
2023/02/14 05:20:59;;;;;;;67.50;29.58;;;2.90;99.90;;;;;;4652452;30;20276;-75
2023/02/14 05:23:25;;;;;;;66.05;30.17;;;2.90;99.90;;;;;;4650689;30;20245;-78
2023/02/14 05:25:51;;;;;;;65.05;31.33;;;2.80;99.90;;;;;;4647813;30;20205;-75
2023/02/14 05:28:19;;;;;;;66.28;30.40;;;2.90;99.90;;;;;;4650899;30;20329;-78
2023/02/14 05:30:45;;;;;;;58.83;28.70;;;2.90;99.90;;;;;;4651911;30;20296;-76
2023/02/14 05:33:11;;;;;;;64.60;30.27;;;2.90;99.90;;;;;;4650638;30;20209;-80
2023/02/14 05:35:37;;;;;;;68.93;32.42;;;2.90;99.90;;;;;;4650989;30;20205;-76
2023/02/14 05:38:03;;;;;;;63.00;30.58;;;2.90;99.90;;;;;;4651863;30;20944;-77
2023/02/14 05:40:29;;;;;;;64.47;30.00;;;2.90;99.90;;;;;;4651710;30;20214;-76
2023/02/14 05:42:55;;;;;;;64.18;30.35;;;2.90;99.90;;;;;;4652778;30;20874;-76
2023/02/14 05:45:22;;;;;;;64.97;30.10;;;2.90;99.90;;;;;;4638402;30;20698;-79
2023/02/14 05:47:48;;;;;;;67.45;30.23;;;2.90;99.90;;;;;;4647695;30;20253;-77
2023/02/14 05:50:15;;;;;;;65.80;30.63;;;2.90;99.90;;;;;;4651381;30;20273;-80
2023/02/14 05:52:41;;;;;;;66.40;30.05;;;2.90;99.90;;;;;;4648669;30;20336;-80
2023/02/14 05:55:07;;;;;;;60.13;28.95;;;2.90;99.90;;;;;;4648298;30;20212;-75
2023/02/14 05:57:33;;;;;;;73.78;29.63;;;2.90;99.90;;;;;;4646560;30;20304;-78
2023/02/14 05:59:59;;;;;;;69.13;31.65;;;2.90;99.90;;;;;;4647790;30;20209;-75
2023/02/14 06:02:25;;;;;;;69.07;31.27;;;2.90;99.90;;;;;;4651292;30;20198;-77
2023/02/14 06:04:51;;;;;;;70.95;31.95;;;2.90;99.90;;;;;;4647714;30;20274;-75
2023/02/14 06:07:17;;;;;;;73.70;30.30;;;2.90;99.90;;;;;;4649135;30;20285;-81
2023/02/14 06:09:43;;;;;;;78.43;32.60;;;2.90;99.90;;;;;;4646129;30;20266;-76
2023/02/14 06:12:08;;;;;;;79.60;31.30;;;3.00;99.90;;;;;;4641926;30;20309;-81
2023/02/14 06:14:34;;;;;;;81.20;31.60;;;2.90;99.90;;;;;;4645685;30;20238;-78
2023/02/14 06:17:00;;;;;;;91.10;32.10;;;2.90;99.90;;;;;;4649366;30;20292;-78
2023/02/14 06:19:26;;;;;;;118.85;35.42;;;2.90;99.90;;;;;;4651413;30;20262;-80
2023/02/14 06:21:51;;;;;;;209.52;34.65;;;2.90;99.90;;;;;;4633175;30;20315;-76
2023/02/14 06:24:17;;;;;;;159.52;33.97;;;2.80;99.90;;;;;;4647836;30;20346;-79
2023/02/14 06:26:43;;;;;;;143.32;36.00;;;2.80;99.90;;;;;;4648949;30;20198;-79
2023/02/14 06:29:09;;;;;;;213.60;36.92;;;2.80;99.90;;;;;;4651288;30;20221;-78
2023/02/14 06:31:34;;;;;;;118.22;34.42;;;2.90;99.90;;;;;;4651051;30;20207;-79
2023/02/14 06:34:00;;;;;;;169.02;35.30;;;2.80;99.90;;;;;;4626319;30;20197;-74
2023/02/14 06:36:26;;;;;;;270.70;35.65;;;2.80;99.90;;;;;;4649850;30;20339;-74
2023/02/14 06:38:52;;;;;;;101.47;33.58;;;2.90;99.90;;;;;;4653137;30;20678;-78
2023/02/14 06:41:18;;;;;;;235.50;32.75;;;2.80;99.90;;;;;;4654638;30;20201;-80
2023/02/14 06:43:49;;;;;;;217.27;32.10;;;2.90;99.90;;;;;;4653809;30;20232;-77
2023/02/14 06:46:16;;;;;;;201.27;29.70;;;2.80;99.90;;;;;;4657025;30;20201;-75
2023/02/14 06:48:42;;;;;;;198.93;31.10;;;2.80;99.90;;;;;;4655177;30;20193;-75
2023/02/14 06:51:07;;;;;;;178.75;29.98;;;2.80;99.90;;;;;;4659481;30;20288;-75
2023/02/14 06:53:33;;;;;;;85.40;28.13;;;2.70;99.90;;;;;;4652918;30;20216;-76
2023/02/14 06:55:59;;;;;;;135.88;29.02;;;2.70;99.90;;;;;;4652263;30;20198;-74
2023/02/14 06:58:25;;;;;;;88.82;29.17;;;2.60;99.90;;;;;;4640055;30;20209;-79
2023/02/14 07:00:53;;;;;;;110.28;27.42;;;2.60;99.90;;;;;;4652776;30;20197;-76
2023/02/14 07:03:19;;;;;;;112.65;26.10;;;2.60;99.90;;;;;;4645884;30;20703;-76
2023/02/14 07:05:45;;;;;;;76.80;24.25;;;2.50;99.90;;;;;;4650250;30;20208;-80
2023/02/14 07:08:10;;;;;;;75.00;24.00;;;2.50;99.90;;;;;;4649407;30;20259;-80
2023/02/14 07:10:36;;;;;;;59.25;20.15;;;2.40;99.90;;;;;;4648198;30;20706;-80
2023/02/14 07:13:02;;;;;;;94.78;24.38;;;2.30;99.90;;;;;;4654229;30;20221;-73
2023/02/14 07:15:28;;;;;;;157.80;23.23;;;2.30;99.90;;;;;;4654040;30;20751;-77
2023/02/14 07:17:54;;;;;;;118.63;23.33;;;2.20;99.90;;;;;;4654564;30;20193;-73
2023/02/14 07:20:20;;;;;;;127.40;25.10;;;2.20;99.90;;;;;;4639470;30;20208;-78
2023/02/14 07:22:46;;;;;;;113.70;23.60;;;2.20;99.90;;;;;;4637398;30;20670;-80
2023/02/14 07:25:12;;;;;;;124.20;24.65;;;2.20;99.90;;;;;;4633800;30;20211;-80
2023/02/14 07:27:38;;;;;;;67.95;24.65;;;2.20;99.90;;;;;;4654001;30;20204;-76
2023/02/14 07:30:06;;;;;;;86.05;24.20;;;2.20;99.90;;;;;;4654305;30;20233;-75
2023/02/14 07:32:32;;;;;;;52.97;22.55;;;2.20;99.90;;;;;;4653177;30;20325;-76
2023/02/14 07:34:58;;;;;;;52.10;21.10;;;2.20;99.90;;;;;;4651908;30;20232;-73
2023/02/14 07:37:24;;;;;;;83.93;22.65;;;2.20;99.90;;;;;;4653291;30;20285;-75
2023/02/14 07:39:49;;;;;;;144.88;25.23;;;2.20;99.90;;;;;;4649182;30;20694;-74
2023/02/14 07:42:15;;;;;;;73.63;21.30;;;2.20;99.90;;;;;;4650266;30;20245;-78
2023/02/14 07:44:45;;;;;;;178.88;23.63;;;2.20;99.90;;;;;;4644158;30;20193;-74
2023/02/14 07:47:10;;;;;;;78.32;24.35;;;2.20;99.90;;;;;;4652872;30;20201;-76
2023/02/14 07:49:36;;;;;;;147.60;25.70;;;2.20;99.90;;;;;;4649372;30;20229;-76
2023/02/14 07:52:03;;;;;;;114.75;25.77;;;2.20;99.90;;;;;;4649288;30;20265;-78
2023/02/14 07:54:29;;;;;;;124.10;24.42;;;2.20;99.90;;;;;;4651786;30;20226;-77
2023/02/14 07:56:55;;;;;;;70.13;24.00;;;2.20;99.90;;;;;;4654161;30;21466;-79
2023/02/14 07:59:21;;;;;;;61.55;26.83;;;2.20;99.90;;;;;;4655158;30;20206;-78
2023/02/14 08:01:46;;;;;;;85.45;27.58;;;2.20;99.90;;;;;;4649383;30;20202;-77
2023/02/14 08:04:12;;;;;;;131.05;28.35;;;2.30;99.90;;;;;;4649409;30;20262;-78
2023/02/14 08:06:39;;;;;;;95.25;27.23;;;2.30;99.90;;;;;;4649966;30;20215;-73
2023/02/14 08:09:05;;;;;;;94.15;26.63;;;2.30;99.90;;;;;;4651392;30;20843;-80
2023/02/14 08:14:16;;;;;;;98.28;26.50;;;2.40;99.90;;;;;;4653655;30;20188;-74
2023/02/14 08:16:42;;;;;;;109.97;26.83;;;2.40;99.90;;;;;;4652638;30;20212;-78
2023/02/14 08:19:08;;;;;;;52.50;26.80;;;2.50;99.90;;;;;;4650900;30;20201;-79
2023/02/14 08:21:33;;;;;;;73.63;29.25;;;2.50;99.90;;;;;;4649463;30;20204;-76
2023/02/14 08:23:59;;;;;;;55.22;27.25;;;2.50;99.90;;;;;;4647937;30;20511;-78
2023/02/14 08:26:25;;;;;;;105.07;29.13;;;2.50;99.90;;;;;;4652683;30;20320;-78
2023/02/14 08:28:51;;;;;;;79.97;27.38;;;2.50;99.90;;;;;;4651326;30;20261;-75
2023/02/14 08:31:25;;;;;;;101.50;29.40;;;2.60;99.90;;;;;;4652612;30;20209;-77
2023/02/14 08:33:51;;;;;;;72.85;27.60;;;2.60;99.90;;;;;;4651101;30;20201;-74
2023/02/14 08:36:17;;;;;;;94.20;29.58;;;2.60;99.90;;;;;;4650510;30;20762;-78
2023/02/14 08:38:46;;;;;;;72.03;30.48;;;2.70;99.90;;;;;;4635441;30;20202;-76
2023/02/14 08:41:16;;;;;;;74.63;33.20;;;2.70;99.90;;;;;;4628062;30;20200;-76
2023/02/14 08:43:42;;;;;;;62.58;28.75;;;2.70;99.90;;;;;;4653334;30;20201;-73
2023/02/14 08:46:09;;;;;;;68.00;30.73;;;2.90;99.90;;;;;;4649704;30;20197;-74
2023/02/14 08:48:35;;;;;;;66.43;28.63;;;2.90;99.90;;;;;;4636381;30;20227;-74
2023/02/14 08:51:09;;;;;;;66.07;30.15;;;2.90;99.90;;;;;;4650452;30;20312;-77
2023/02/14 08:53:35;;;;;;;73.03;31.15;;;3.00;99.90;;;;;;4629872;30;20714;-77
2023/02/14 08:56:06;;;;;;;73.32;33.05;;;3.10;99.90;;;;;;4649390;30;20204;-80
2023/02/14 08:58:34;;;;;;;74.97;32.70;;;3.20;99.90;;;;;;4654073;30;20650;-78
2023/02/14 09:01:01;;;;;;;76.07;34.92;;;3.30;99.90;;;;;;4649652;30;20193;-74
2023/02/14 09:03:27;;;;;;;78.25;34.53;;;3.40;99.90;;;;;;4651001;30;20205;-76
2023/02/14 09:05:53;;;;;;;75.70;34.80;;;3.60;99.90;;;;;;4636750;30;20811;-79
2023/02/14 09:08:19;;;;;;;72.22;34.85;;;3.70;99.90;;;;;;4649312;30;20256;-76
2023/02/14 09:10:44;;;;;;;68.85;35.67;;;4.10;99.90;;;;;;4651796;30;20233;-75
2023/02/14 09:13:10;;;;;;;64.85;33.42;;;4.30;99.90;;;;;;4652882;30;20682;-78
2023/02/14 09:15:36;;;;;;;59.65;33.03;;;4.70;99.90;;;;;;4651466;30;20206;-77
2023/02/14 09:18:02;;;;;;;61.67;33.78;;;5.10;99.90;;;;;;4626974;30;20197;-75
2023/02/14 09:20:27;;;;;;;54.28;32.03;;;5.50;99.90;;;;;;4648478;30;20205;-78
2023/02/14 09:22:56;;;;;;;51.65;30.27;;;5.90;99.90;;;;;;4649628;30;20204;-73
2023/02/14 09:25:22;;;;;;;50.75;30.25;;;6.20;99.90;;;;;;4649207;30;20888;-77
2023/02/14 09:27:47;;;;;;;54.80;30.38;;;6.30;99.90;;;;;;4652900;30;20723;-73
2023/02/14 09:30:14;;;;;;;44.85;28.83;;;6.60;99.90;;;;;;4645482;30;20896;-78
2023/02/14 09:32:39;;;;;;;43.00;27.88;;;7.10;99.90;;;;;;4646979;30;20614;-74
2023/02/14 09:35:05;;;;;;;35.22;24.35;;;7.50;99.90;;;;;;4632815;30;20287;-77
2023/02/14 09:40:19;;;;;;;37.75;24.88;;;8.10;99.90;;;;;;4651547;30;20212;-81
2023/02/14 09:42:54;;;;;;;36.90;24.90;;;8.20;99.90;;;;;;4649129;30;20210;-74
2023/02/14 09:45:26;;;;;;;33.88;23.25;;;8.40;99.90;;;;;;4649642;30;20194;-80
2023/02/14 09:48:30;;;;;;;34.80;23.35;;;8.70;99.90;;;;;;4636519;30;20240;-74
2023/02/14 09:51:01;;;;;;;30.92;22.15;;;9.00;99.90;;;;;;4652229;30;20236;-74
2023/02/14 09:53:29;;;;;;;31.17;21.85;;;9.20;99.90;;;;;;4648890;30;20683;-80
2023/02/14 09:56:16;;;;;;;32.50;21.13;;;9.40;99.90;;;;;;4649385;30;20303;-75
2023/02/14 09:59:08;;;;;;;33.67;22.27;;;9.60;99.90;;;;;;4618260;30;21080;-76
2023/02/14 10:01:58;;;;;;;37.38;22.95;;;9.80;99.90;;;;;;4651852;30;20215;-74
2023/02/14 10:04:27;;;;;;;37.88;23.20;;;9.90;99.90;;;;;;4651848;30;20216;-74
2023/02/14 10:07:08;;;;;;;40.03;22.95;;;10.10;99.90;;;;;;4654697;30;20632;-74
2023/02/14 10:09:42;;;;;;;34.25;23.90;;;10.30;99.90;;;;;;4649250;30;21079;-74
2023/02/14 10:12:21;;;;;;;40.70;22.52;;;10.60;99.90;;;;;;4653253;30;20249;-74
2023/02/14 10:14:49;;;;;;;36.10;23.15;;;10.80;99.90;;;;;;4655837;30;20181;-78
2023/02/14 10:17:23;;;;;;;38.85;22.83;;;10.80;99.90;;;;;;4655963;30;20620;-74
2023/02/14 10:19:56;;;;;;;33.63;23.35;;;11.00;99.90;;;;;;4639496;30;20963;-77
2023/02/14 10:22:32;;;;;;;37.63;22.02;;;11.30;99.90;;;;;;4645425;30;20190;-77
2023/02/14 10:25:04;;;;;;;34.72;22.83;;;11.60;99.90;;;;;;4655247;30;20225;-75
2023/02/14 10:27:35;;;;;;;35.33;22.73;;;11.90;99.90;;;;;;4654923;30;20583;-76
2023/02/14 10:30:09;;;;;;;36.10;23.00;;;12.30;99.90;;;;;;4653787;30;20427;-76
2023/02/14 10:32:55;;;;;;;31.38;21.67;;;12.30;99.90;;;;;;4635177;30;20315;-76
2023/02/14 10:35:27;;;;;;;32.47;22.88;;;12.40;99.90;;;;;;4654647;30;20201;-78
2023/02/14 10:38:01;;;;;;;30.50;22.70;;;12.50;99.90;;;;;;4656426;30;20232;-78
2023/02/14 10:40:48;;;;;;;36.45;22.98;;;12.70;99.90;;;;;;4652738;30;20205;-77
2023/02/14 10:43:54;;;;;;;32.97;22.33;;;12.80;99.90;;;;;;4655167;30;20251;-77
2023/02/14 10:46:26;;;;;;;30.17;22.75;;;12.80;99.90;;;;;;4625435;30;20235;-78
2023/02/14 10:49:09;;;;;;;31.20;22.60;;;13.00;99.90;;;;;;4654485;30;20188;-76
2023/02/14 10:52:04;;;;;;;31.63;22.65;;;13.10;99.90;;;;;;4636003;30;20208;-74
2023/02/14 10:54:40;;;;;;;26.98;20.60;;;13.30;99.90;;;;;;4652714;30;20213;-77
2023/02/14 10:57:21;;;;;;;31.75;22.10;;;13.40;99.90;;;;;;4653873;30;20198;-78
2023/02/14 11:00:05;;;;;;;28.98;21.83;;;13.30;99.90;;;;;;4653004;30;20201;-79
2023/02/14 11:02:41;;;;;;;29.88;21.15;;;13.40;99.90;;;;;;4636166;30;20595;-78
2023/02/14 11:05:24;;;;;;;32.72;22.60;;;13.40;99.90;;;;;;4653884;30;20320;-77
2023/02/14 11:07:50;;;;;;;34.85;21.75;;;13.40;99.90;;;;;;4654787;30;20771;-78
2023/02/14 11:10:19;;;;;;;30.80;22.73;;;13.50;99.90;;;;;;4653132;30;20222;-75
2023/02/14 11:12:44;;;;;;;29.02;21.15;;;13.50;99.90;;;;;;4649435;30;20293;-79
2023/02/14 11:15:31;;;;;;;28.38;21.17;;;13.50;99.90;;;;;;4648210;30;20201;-77
2023/02/14 11:18:22;;;;;;;34.45;21.10;;;13.60;99.90;;;;;;4651618;30;20311;-76
2023/02/14 11:21:03;;;;;;;28.25;20.73;;;13.70;99.90;;;;;;4655026;30;20667;-75
2023/02/14 11:23:49;;;;;;;29.65;21.35;;;13.80;99.90;;;;;;4654222;30;20566;-76
2023/02/14 11:26:29;;;;;;;30.23;22.08;;;13.90;99.90;;;;;;4655304;30;20662;-75
2023/02/14 11:28:57;;;;;;;32.45;21.60;;;14.10;99.90;;;;;;4633385;30;20344;-80
2023/02/14 11:31:41;;;;;;;30.15;21.92;;;14.30;99.90;;;;;;4653440;30;20200;-75
2023/02/14 11:34:24;;;;;;;31.92;22.63;;;14.50;99.90;;;;;;4650760;30;20205;-75
2023/02/14 11:36:49;;;;;;;33.80;22.70;;;14.60;99.90;;;;;;4651964;30;20196;-75
2023/02/14 11:39:21;;;;;;;28.38;21.02;;;14.60;99.90;;;;;;4654842;30;20213;-78
2023/02/14 11:41:48;;;;;;;32.80;22.35;;;14.70;99.90;;;;;;4653960;30;20198;-79
2023/02/14 11:44:23;;;;;;;30.67;22.67;;;14.70;99.90;;;;;;4651110;30;20194;-76
2023/02/14 11:46:54;;;;;;;32.75;22.80;;;14.70;99.90;;;;;;4653376;30;20193;-75
2023/02/14 11:49:27;;;;;;;27.65;21.58;;;14.90;99.90;;;;;;4640767;30;20238;-78
2023/02/14 11:51:54;;;;;;;28.05;22.30;;;15.00;99.90;;;;;;4637866;30;20197;-78
2023/02/14 11:54:28;;;;;;;33.08;23.02;;;15.20;99.90;;;;;;4653559;30;20202;-76
2023/02/14 11:57:07;;;;;;;31.30;22.67;;;15.20;99.90;;;;;;4653095;30;20313;-78
2023/02/14 11:59:46;;;;;;;32.03;23.10;;;15.30;99.90;;;;;;4649351;30;20669;-80
2023/02/14 12:02:50;;;;;;;29.00;22.20;;;15.40;99.90;;;;;;4652705;30;20204;-75
2023/02/14 12:05:22;;;;;;;31.45;22.40;;;15.50;99.90;;;;;;4650533;30;20209;-79
2023/02/14 12:07:51;;;;;;;28.08;21.42;;;15.70;99.90;;;;;;4652113;30;20211;-76
2023/02/14 12:10:28;;;;;;;31.15;22.10;;;15.70;99.90;;;;;;4649615;30;20240;-74
2023/02/14 12:13:07;;;;;;;31.95;21.80;;;15.80;99.90;;;;;;4654650;30;20192;-77
2023/02/14 12:15:43;;;;;;;31.52;22.55;;;15.90;99.90;;;;;;4639800;30;20259;-76
2023/02/14 12:18:15;;;;;;;31.35;21.88;;;16.00;99.90;;;;;;4653177;30;20223;-78
2023/02/14 12:21:11;;;;;;;29.30;21.58;;;16.10;99.90;;;;;;4650156;30;20200;-81
2023/02/14 12:23:54;;;;;;;29.30;22.10;;;16.20;99.90;;;;;;4654617;30;20220;-79
2023/02/14 12:26:27;;;;;;;31.60;21.48;;;16.40;99.90;;;;;;4654168;30;20193;-75
2023/02/14 12:29:16;;;;;;;31.27;21.92;;;16.40;99.90;;;;;;4648867;30;21391;-77
2023/02/14 12:31:43;;;;;;;30.98;21.60;;;16.40;99.90;;;;;;4646821;30;20206;-75
2023/02/14 12:34:11;;;;;;;28.40;20.92;;;16.50;99.90;;;;;;4652861;30;20208;-77
2023/02/14 12:36:43;;;;;;;32.78;22.13;;;16.60;99.90;;;;;;4652582;30;20201;-75
2023/02/14 12:39:47;;;;;;;28.15;21.58;;;16.70;99.90;;;;;;4649099;30;20664;-79
2023/02/14 12:42:25;;;;;;;32.63;22.70;;;16.80;99.90;;;;;;4653318;30;20201;-75
2023/02/14 12:45:16;;;;;;;31.88;22.30;;;16.90;99.90;;;;;;4652687;30;22730;-77
2023/02/14 12:48:16;;;;;;;31.52;21.90;;;16.80;99.90;;;;;;4655259;30;20198;-77
2023/02/14 12:50:42;;;;;;;32.15;20.80;;;16.80;99.90;;;;;;4649626;30;20233;-76
2023/02/14 12:53:14;;;;;;;27.67;21.40;;;16.80;99.90;;;;;;4650931;30;20194;-76
2023/02/14 12:55:59;;;;;;;33.20;22.98;;;16.70;99.90;;;;;;4630576;30;20288;-74
2023/02/14 12:58:30;;;;;;;34.08;23.52;;;16.90;99.90;;;;;;4653102;30;20205;-80
2023/02/14 13:01:04;;;;;;;33.90;23.60;;;17.10;99.90;;;;;;4650118;30;20202;-79
2023/02/14 13:03:33;;;;;;;37.13;23.67;;;17.40;99.90;;;;;;4655915;30;20204;-75
2023/02/14 13:06:21;;;;;;;34.15;23.88;;;17.60;99.90;;;;;;4653294;30;20185;-79
2023/02/14 13:09:00;;;;;;;38.95;24.92;;;17.80;99.50;;;;;;4654107;30;20244;-75
2023/02/14 13:11:47;;;;;;;37.22;24.83;;;17.90;98.90;;;;;;4654254;30;20235;-76
2023/02/14 13:14:38;;;;;;;32.28;23.92;;;18.00;98.50;;;;;;4649427;30;20326;-77
2023/02/14 13:17:19;;;;;;;33.42;23.65;;;18.00;98.30;;;;;;4648920;30;20244;-76
2023/02/14 13:19:59;;;;;;;34.97;23.80;;;18.30;97.90;;;;;;4647897;30;20193;-76